Time,TemperatureF,DewpointF,PressureIn,WindDirection,WindDirectionDegrees,WindSpeedMPH,WindSpeedGustMPH,Humidity,HourlyPrecipIn,Conditions,Clouds,dailyrainin,SoftwareType,DateUTC
2013-08-14 00:01:00,66.1,63.1,29.74,North,5,0.0,0.0,90,0.00,,---,0.00,VWS V14.01,2013-08-14 04:01:00,
2013-08-14 00:02:00,66.1,63.1,29.74,North,5,0.0,0.0,90,0.00,,---,0.00,VWS V14.01,2013-08-14 04:02:00,
2013-08-14 00:04:00,66.1,63.1,29.74,North,5,0.0,0.0,90,0.00,,---,0.00,VWS V14.01,2013-08-14 04:04:00,
2013-08-14 00:05:00,66.0,63.0,29.74,North,5,0.0,0.0,90,0.00,,---,0.00,VWS V14.01,2013-08-14 04:05:00,
2013-08-14 00:10:00,66.0,63.0,29.74,North,5,0.0,0.0,90,0.00,,---,0.00,VWS V14.01,2013-08-14 04:10:00,
2013-08-14 00:15:00,65.8,62.8,29.74,North,5,0.0,0.0,90,0.00,,---,0.00,VWS V14.01,2013-08-14 04:15:00,
2013-08-14 00:16:00,65.8,62.8,29.74,North,5,0.0,0.0,90,0.00,,---,0.00,VWS V14.01,2013-08-14 04:16:00,
2013-08-14 00:21:00,65.8,62.8,29.74,North,5,0.0,0.0,90,0.00,,---,0.00,VWS V14.01,2013-08-14 04:21:00,
2013-08-14 00:27:00,65.6,62.3,29.73,North,5,0.0,0.0,89,0.00,,---,0.00,VWS V14.01,2013-08-14 04:27:00,
2013-08-14 00:33:00,65.6,62.3,29.73,North,5,0.0,0.0,89,0.00,,---,0.00,VWS V14.01,2013-08-14 04:33:00,
2013-08-14 00:38:00,65.8,62.8,29.73,North,5,0.0,0.0,90,0.00,,---,0.00,VWS V14.01,2013-08-14 04:38:00,
2013-08-14 00:43:00,65.6,62.3,29.73,North,5,0.0,0.0,89,0.00,,---,0.00,VWS V14.01,2013-08-14 04:43:00,
2013-08-14 00:48:00,65.6,62.3,29.73,North,5,0.0,0.0,89,0.00,,---,0.00,VWS V14.01,2013-08-14 04:48:00,
2013-08-14 00:54:00,65.5,62.2,29.73,North,5,0.0,0.0,89,0.00,,---,0.00,VWS V14.01,2013-08-14 04:54:00,
2013-08-14 01:00:00,65.3,62.0,29.73,North,5,0.0,0.0,89,0.00,,---,0.00,VWS V14.01,2013-08-14 05:00:00,
2013-08-14 01:05:00,65.3,62.0,29.73,North,5,0.0,0.0,89,0.00,,---,0.00,VWS V14.01,2013-08-14 05:05:00,
2013-08-14 01:10:00,65.2,62.2,29.73,North,5,0.0,0.0,90,0.00,,---,0.00,VWS V14.01,2013-08-14 05:10:00,
2013-08-14 01:15:00,65.0,62.0,29.73,North,5,0.0,0.0,90,0.00,,---,0.00,VWS V14.01,2013-08-14 05:15:00,
2013-08-14 01:20:00,64.8,61.8,29.74,North,5,0.0,0.0,90,0.00,,---,0.00,VWS V14.01,2013-08-14 05:20:00,
2013-08-14 01:25:00,64.8,61.8,29.73,North,5,0.0,0.0,90,0.00,,---,0.00,VWS V14.01,2013-08-14 05:25:00,
2013-08-14 01:31:00,64.7,61.7,29.73,North,5,0.0,0.0,90,0.00,,---,0.00,VWS V14.01,2013-08-14 05:31:00,
2013-08-14 01:36:00,64.5,61.8,29.73,North,5,0.0,0.0,91,0.00,,---,0.00,VWS V14.01,2013-08-14 05:36:00,
2013-08-14 01:41:00,64.5,61.8,29.73,North,5,0.0,0.0,91,0.00,,---,0.00,VWS V14.01,2013-08-14 05:41:00,
2013-08-14 01:46:00,64.3,61.6,29.73,North,5,0.0,0.0,91,0.00,,---,0.00,VWS V14.01,2013-08-14 05:46:00,
2013-08-14 01:51:00,64.2,61.5,29.73,North,5,0.0,0.0,91,0.00,,---,0.00,VWS V14.01,2013-08-14 05:51:00,
2013-08-14 01:56:00,64.2,61.5,29.73,North,5,0.0,0.0,91,0.00,,---,0.00,VWS V14.01,2013-08-14 05:56:00,
2013-08-14 02:01:00,64.0,61.3,29.73,North,5,0.0,0.0,91,0.00,,---,0.00,VWS V14.01,2013-08-14 06:01:00,
2013-08-14 02:06:00,63.9,61.2,29.73,North,5,0.0,0.0,91,0.00,,---,0.00,VWS V14.01,2013-08-14 06:06:00,
2013-08-14 02:11:00,63.9,61.2,29.73,North,5,0.0,0.0,91,0.00,,---,0.00,VWS V14.01,2013-08-14 06:11:00,
2013-08-14 02:17:00,63.7,61.0,29.73,North,5,0.0,0.0,91,0.00,,---,0.00,VWS V14.01,2013-08-14 06:17:00,
2013-08-14 02:22:00,63.7,61.0,29.73,North,5,0.0,0.0,91,0.00,,---,0.00,VWS V14.01,2013-08-14 06:22:00,
2013-08-14 02:28:00,63.5,60.8,29.74,North,5,0.0,0.0,91,0.00,,---,0.00,VWS V14.01,2013-08-14 06:28:00,
2013-08-14 02:33:00,63.5,60.8,29.74,North,5,0.0,0.0,91,0.00,,---,0.00,VWS V14.01,2013-08-14 06:33:00,
2013-08-14 02:38:00,63.4,60.7,29.74,North,5,0.0,0.0,91,0.00,,---,0.00,VWS V14.01,2013-08-14 06:38:00,
2013-08-14 02:43:00,63.4,60.7,29.73,North,5,0.0,0.0,91,0.00,,---,0.00,VWS V14.01,2013-08-14 06:43:00,
2013-08-14 02:48:00,63.2,60.5,29.74,North,5,0.0,0.0,91,0.00,,---,0.00,VWS V14.01,2013-08-14 06:48:00,
2013-08-14 02:53:00,63.1,60.4,29.74,North,5,0.0,0.0,91,0.00,,---,0.00,VWS V14.01,2013-08-14 06:53:00,
2013-08-14 02:58:00,63.1,60.4,29.74,North,5,0.0,0.0,91,0.00,,---,0.00,VWS V14.01,2013-08-14 06:58:00,
2013-08-14 03:03:00,62.9,60.2,29.74,North,5,0.0,0.0,91,0.00,,---,0.00,VWS V14.01,2013-08-14 07:03:00,
2013-08-14 03:08:00,62.7,60.0,29.74,North,5,0.0,0.0,91,0.00,,---,0.00,VWS V14.01,2013-08-14 07:08:00,
2013-08-14 03:13:00,62.6,59.9,29.74,North,5,0.0,0.0,91,0.00,,---,0.00,VWS V14.01,2013-08-14 07:13:00,
2013-08-14 03:18:00,62.4,59.7,29.74,North,5,0.0,0.0,91,0.00,,---,0.00,VWS V14.01,2013-08-14 07:18:00,
2013-08-14 03:23:00,62.3,59.3,29.74,NNW,339,0.0,0.0,90,0.00,,---,0.00,VWS V14.01,2013-08-14 07:23:00,
2013-08-14 03:28:00,62.1,58.8,29.74,NNW,339,0.0,0.0,89,0.00,,---,0.00,VWS V14.01,2013-08-14 07:28:00,
2013-08-14 03:33:00,62.0,58.4,29.74,NNW,333,0.0,1.0,88,0.00,,---,0.00,VWS V14.01,2013-08-14 07:33:00,
2013-08-14 03:38:00,61.8,57.9,29.74,WNW,294,0.0,0.0,87,0.00,,---,0.00,VWS V14.01,2013-08-14 07:38:00,
2013-08-14 03:43:00,61.6,57.0,29.74,WNW,294,0.0,0.0,85,0.00,,---,0.00,VWS V14.01,2013-08-14 07:43:00,
2013-08-14 03:48:00,61.5,57.0,29.74,WNW,294,0.0,0.0,85,0.00,,---,0.00,VWS V14.01,2013-08-14 07:48:00,
2013-08-14 03:53:00,61.3,56.4,29.74,WNW,294,0.0,0.0,84,0.00,,---,0.00,VWS V14.01,2013-08-14 07:53:00,
2013-08-14 03:59:00,61.3,56.1,29.74,NNW,336,0.0,1.0,83,0.00,,---,0.00,VWS V14.01,2013-08-14 07:59:00,
2013-08-14 04:04:00,61.2,56.0,29.74,NNW,338,0.0,1.0,83,0.00,,---,0.00,VWS V14.01,2013-08-14 08:04:00,
2013-08-14 04:09:00,61.0,55.8,29.74,NNW,338,0.0,0.0,83,0.00,,---,0.00,VWS V14.01,2013-08-14 08:09:00,
2013-08-14 04:15:00,61.0,55.8,29.75,NNW,338,0.0,0.0,83,0.00,,---,0.00,VWS V14.01,2013-08-14 08:15:00,
2013-08-14 04:21:00,60.9,55.7,29.74,SSE,163,0.0,1.0,83,0.00,,---,0.00,VWS V14.01,2013-08-14 08:21:00,
2013-08-14 04:26:00,60.7,55.5,29.74,SSE,163,0.0,0.0,83,0.00,,---,0.00,VWS V14.01,2013-08-14 08:26:00,
2013-08-14 04:32:00,60.5,55.3,29.74,ENE,65,0.0,0.0,83,0.00,,---,0.00,VWS V14.01,2013-08-14 08:32:00,
2013-08-14 04:37:00,60.4,54.9,29.74,North,9,0.0,3.0,82,0.00,,---,0.00,VWS V14.01,2013-08-14 08:37:00,
2013-08-14 04:43:00,60.2,54.7,29.75,North,10,0.0,0.0,82,0.00,,---,0.00,VWS V14.01,2013-08-14 08:43:00,
2013-08-14 04:48:00,60.1,54.3,29.75,North,10,0.0,0.0,81,0.00,,---,0.00,VWS V14.01,2013-08-14 08:48:00,
2013-08-14 04:53:00,60.1,54.3,29.75,NNW,332,0.0,1.0,81,0.00,,---,0.00,VWS V14.01,2013-08-14 08:53:00,
2013-08-14 04:58:00,60.1,53.9,29.75,WNW,289,0.0,0.0,80,0.00,,---,0.00,VWS V14.01,2013-08-14 08:58:00,
2013-08-14 05:03:00,60.1,53.9,29.75,SW,232,0.0,0.0,80,0.00,,---,0.00,VWS V14.01,2013-08-14 09:03:00,
2013-08-14 05:09:00,60.1,53.9,29.75,SW,232,0.0,0.0,80,0.00,,---,0.00,VWS V14.01,2013-08-14 09:09:00,
2013-08-14 05:14:00,59.9,53.7,29.75,NNW,334,0.0,0.0,80,0.00,,---,0.00,VWS V14.01,2013-08-14 09:14:00,
2013-08-14 05:19:00,59.8,53.6,29.76,NNW,334,0.0,0.0,80,0.00,,---,0.00,VWS V14.01,2013-08-14 09:19:00,
2013-08-14 05:24:00,59.6,53.8,29.76,NNW,334,0.0,0.0,81,0.00,,---,0.00,VWS V14.01,2013-08-14 09:24:00,
2013-08-14 05:30:00,59.5,53.7,29.76,NNW,334,0.0,0.0,81,0.00,,---,0.00,VWS V14.01,2013-08-14 09:30:00,
2013-08-14 05:35:00,59.3,53.5,29.76,NNW,334,0.0,0.0,81,0.00,,---,0.00,VWS V14.01,2013-08-14 09:35:00,
2013-08-14 05:40:00,59.2,53.7,29.76,NNW,334,0.0,0.0,82,0.00,,---,0.00,VWS V14.01,2013-08-14 09:40:00,
2013-08-14 05:46:00,59.0,53.5,29.76,NNW,334,0.0,0.0,82,0.00,,---,0.00,VWS V14.01,2013-08-14 09:46:00,
2013-08-14 05:51:00,58.7,53.2,29.76,NNW,334,0.0,0.0,82,0.00,,---,0.00,VWS V14.01,2013-08-14 09:51:00,
2013-08-14 05:56:00,58.6,53.1,29.77,NNW,334,0.0,0.0,82,0.00,,---,0.00,VWS V14.01,2013-08-14 09:56:00,
2013-08-14 06:02:00,58.3,53.2,29.77,NNW,334,0.0,0.0,83,0.00,,---,0.00,VWS V14.01,2013-08-14 10:02:00,
2013-08-14 06:07:00,58.1,53.0,29.77,NNW,334,0.0,0.0,83,0.00,,---,0.00,VWS V14.01,2013-08-14 10:07:00,
2013-08-14 06:12:00,58.0,52.9,29.77,NNW,334,0.0,0.0,83,0.00,,---,0.00,VWS V14.01,2013-08-14 10:12:00,
2013-08-14 06:17:00,57.8,53.0,29.78,NNW,334,0.0,0.0,84,0.00,,---,0.00,VWS V14.01,2013-08-14 10:17:00,
2013-08-14 06:22:00,57.6,52.8,29.78,NNW,334,0.0,0.0,84,0.00,,---,0.00,VWS V14.01,2013-08-14 10:22:00,
2013-08-14 06:27:00,57.3,52.8,29.78,NNW,334,0.0,0.0,85,0.00,,---,0.00,VWS V14.01,2013-08-14 10:27:00,
2013-08-14 06:32:00,57.2,53.1,29.79,NNW,334,0.0,0.0,86,0.00,,---,0.00,VWS V14.01,2013-08-14 10:32:00,
2013-08-14 06:37:00,57.2,53.1,29.79,NNW,334,0.0,0.0,86,0.00,,---,0.00,VWS V14.01,2013-08-14 10:37:00,
2013-08-14 06:42:00,57.0,52.9,29.79,NNW,334,0.0,0.0,86,0.00,,---,0.00,VWS V14.01,2013-08-14 10:42:00,
2013-08-14 06:47:00,57.0,53.2,29.79,NNW,334,0.0,0.0,87,0.00,,---,0.00,VWS V14.01,2013-08-14 10:47:00,
2013-08-14 06:52:00,57.2,53.4,29.79,NNW,334,0.0,0.0,87,0.00,,---,0.00,VWS V14.01,2013-08-14 10:52:00,
2013-08-14 06:57:00,57.2,53.4,29.79,NNW,334,0.0,0.0,87,0.00,,---,0.00,VWS V14.01,2013-08-14 10:57:00,
2013-08-14 07:02:00,57.3,53.5,29.80,NNW,334,0.0,0.0,87,0.00,,---,0.00,VWS V14.01,2013-08-14 11:02:00,
2013-08-14 07:07:00,57.6,53.8,29.80,NNW,334,0.0,0.0,87,0.00,,---,0.00,VWS V14.01,2013-08-14 11:07:00,
2013-08-14 07:13:00,57.8,54.3,29.79,NNW,334,0.0,0.0,88,0.00,,---,0.00,VWS V14.01,2013-08-14 11:13:00,
2013-08-14 07:18:00,58.0,54.2,29.79,North,360,0.0,0.0,87,0.00,,---,0.00,VWS V14.01,2013-08-14 11:18:00,
2013-08-14 07:23:00,58.0,53.8,29.79,North,360,0.0,0.0,86,0.00,,---,0.00,VWS V14.01,2013-08-14 11:23:00,
2013-08-14 07:28:00,58.1,53.6,29.79,North,360,0.0,0.0,85,0.00,,---,0.00,VWS V14.01,2013-08-14 11:28:00,
2013-08-14 07:33:00,58.1,53.6,29.79,North,360,0.0,0.0,85,0.00,,---,0.00,VWS V14.01,2013-08-14 11:33:00,
2013-08-14 07:38:00,58.3,53.8,29.80,North,360,0.0,0.0,85,0.00,,---,0.00,VWS V14.01,2013-08-14 11:38:00,
2013-08-14 07:43:00,58.3,53.5,29.80,North,360,0.0,0.0,84,0.00,,---,0.00,VWS V14.01,2013-08-14 11:43:00,
2013-08-14 07:48:00,58.4,52.6,29.80,West,265,0.0,1.0,81,0.00,,---,0.00,VWS V14.01,2013-08-14 11:48:00,
2013-08-14 07:53:00,58.6,52.5,29.80,West,263,4.0,4.0,80,0.00,,---,0.00,VWS V14.01,2013-08-14 11:53:00,
2013-08-14 07:58:00,58.6,51.4,29.80,West,263,0.0,0.0,77,0.00,,---,0.00,VWS V14.01,2013-08-14 11:58:00,
2013-08-14 08:03:00,58.4,50.9,29.80,West,263,0.0,0.0,76,0.00,,---,0.00,VWS V14.01,2013-08-14 12:03:00,
2013-08-14 08:08:00,58.4,50.5,29.80,West,263,0.0,1.0,75,0.00,,---,0.00,VWS V14.01,2013-08-14 12:08:00,
2013-08-14 08:13:00,58.6,50.3,29.81,West,263,0.0,0.0,74,0.00,,---,0.00,VWS V14.01,2013-08-14 12:13:00,
2013-08-14 08:18:00,58.6,50.3,29.80,West,263,0.0,2.0,74,0.00,,---,0.00,VWS V14.01,2013-08-14 12:18:00,
2013-08-14 08:23:00,58.7,49.7,29.81,West,263,0.0,0.0,72,0.00,,---,0.00,VWS V14.01,2013-08-14 12:23:00,
2013-08-14 08:29:00,58.9,49.9,29.81,West,263,0.0,1.0,72,0.00,,---,0.00,VWS V14.01,2013-08-14 12:29:00,
2013-08-14 08:34:00,58.9,49.2,29.81,West,263,0.0,3.0,70,0.00,,---,0.00,VWS V14.01,2013-08-14 12:34:00,
2013-08-14 08:39:00,59.0,49.2,29.81,West,261,0.0,0.0,70,0.00,,---,0.00,VWS V14.01,2013-08-14 12:39:00,
2013-08-14 08:44:00,59.2,49.8,29.81,West,273,2.0,2.0,71,0.00,,---,0.00,VWS V14.01,2013-08-14 12:44:00,
2013-08-14 08:50:00,59.5,49.7,29.81,WSW,257,2.0,2.0,70,0.00,,---,0.00,VWS V14.01,2013-08-14 12:50:00,
2013-08-14 08:55:00,59.6,49.0,29.80,WSW,258,0.0,2.0,68,0.00,,---,0.00,VWS V14.01,2013-08-14 12:55:00,
2013-08-14 09:00:00,59.8,49.2,29.80,WSW,258,1.0,2.0,68,0.00,,---,0.00,VWS V14.01,2013-08-14 13:00:00,
2013-08-14 09:05:00,60.1,50.3,29.81,WNW,296,0.0,2.0,70,0.00,,---,0.00,VWS V14.01,2013-08-14 13:05:00,
2013-08-14 09:11:00,60.1,48.7,29.81,NW,323,2.0,3.0,66,0.00,,---,0.00,VWS V14.01,2013-08-14 13:11:00,
2013-08-14 09:16:00,60.2,49.2,29.80,WSW,240,2.0,2.0,67,0.00,,---,0.00,VWS V14.01,2013-08-14 13:16:00,
2013-08-14 09:22:00,60.7,50.1,29.80,WSW,240,0.0,1.0,68,0.00,,---,0.00,VWS V14.01,2013-08-14 13:22:00,
2013-08-14 09:28:00,61.0,50.8,29.81,WSW,246,2.0,3.0,69,0.00,,---,0.00,VWS V14.01,2013-08-14 13:28:00,
2013-08-14 09:33:00,61.2,49.8,29.81,WSW,246,0.0,3.0,66,0.00,,---,0.00,VWS V14.01,2013-08-14 13:33:00,
2013-08-14 09:39:00,61.2,48.1,29.80,WSW,245,1.0,5.0,62,0.00,,---,0.00,VWS V14.01,2013-08-14 13:39:00,
2013-08-14 09:44:00,61.3,49.5,29.81,WNW,290,2.0,2.0,65,0.00,,---,0.00,VWS V14.01,2013-08-14 13:44:00,
2013-08-14 09:49:00,61.5,48.8,29.81,WSW,243,3.0,4.0,63,0.00,,---,0.00,VWS V14.01,2013-08-14 13:49:00,
2013-08-14 09:54:00,61.6,48.5,29.81,WSW,245,2.0,4.0,62,0.00,,---,0.00,VWS V14.01,2013-08-14 13:54:00,
2013-08-14 09:59:00,62.0,48.4,29.81,WSW,243,3.0,4.0,61,0.00,,---,0.00,VWS V14.01,2013-08-14 13:59:00,
2013-08-14 10:04:00,62.3,48.7,29.81,WSW,255,1.0,4.0,61,0.00,,---,0.00,VWS V14.01,2013-08-14 14:04:00,
2013-08-14 10:10:00,62.7,49.5,29.81,West,265,1.0,2.0,62,0.00,,---,0.00,VWS V14.01,2013-08-14 14:10:00,
2013-08-14 10:15:00,63.1,49.9,29.81,WNW,286,0.0,2.0,62,0.00,,---,0.00,VWS V14.01,2013-08-14 14:15:00,
2013-08-14 10:20:00,63.2,49.5,29.82,West,266,2.0,4.0,61,0.00,,---,0.00,VWS V14.01,2013-08-14 14:20:00,
2013-08-14 10:25:00,63.5,48.9,29.82,WSW,254,4.0,4.0,59,0.00,,---,0.00,VWS V14.01,2013-08-14 14:25:00,
2013-08-14 10:30:00,63.7,49.6,29.82,WSW,237,4.0,4.0,60,0.00,,---,0.00,VWS V14.01,2013-08-14 14:30:00,
2013-08-14 10:35:00,63.7,48.7,29.82,WSW,255,2.0,4.0,58,0.00,,---,0.00,VWS V14.01,2013-08-14 14:35:00,
2013-08-14 10:40:00,64.2,51.4,29.82,WSW,255,0.0,0.0,63,0.00,,---,0.00,VWS V14.01,2013-08-14 14:40:00,
2013-08-14 10:45:00,64.7,51.4,29.82,WSW,255,0.0,0.0,62,0.00,,---,0.00,VWS V14.01,2013-08-14 14:45:00,
2013-08-14 10:50:00,64.8,49.7,29.82,WSW,255,0.0,0.0,58,0.00,,---,0.00,VWS V14.01,2013-08-14 14:50:00,
2013-08-14 10:55:00,65.2,49.6,29.82,SW,219,2.0,5.0,57,0.00,,---,0.00,VWS V14.01,2013-08-14 14:55:00,
2013-08-14 11:00:00,65.5,51.3,29.82,North,360,0.0,1.0,60,0.00,,---,0.00,VWS V14.01,2013-08-14 15:00:00,
2013-08-14 11:05:00,66.0,53.1,29.83,NW,309,2.0,2.0,63,0.00,,---,0.00,VWS V14.01,2013-08-14 15:05:00,
2013-08-14 11:10:00,65.8,50.2,29.82,WSW,245,5.0,5.0,57,0.00,,---,0.00,VWS V14.01,2013-08-14 15:10:00,
2013-08-14 11:16:00,65.3,48.7,29.82,WSW,242,2.0,4.0,55,0.00,,---,0.00,VWS V14.01,2013-08-14 15:16:00,
2013-08-14 11:21:00,65.5,49.4,29.82,WNW,294,2.0,3.0,56,0.00,,---,0.00,VWS V14.01,2013-08-14 15:21:00,
2013-08-14 11:27:00,66.1,50.4,29.82,SW,219,2.0,5.0,57,0.00,,---,0.00,VWS V14.01,2013-08-14 15:27:00,
2013-08-14 11:32:00,66.0,49.9,29.82,SW,232,0.0,3.0,56,0.00,,---,0.00,VWS V14.01,2013-08-14 15:32:00,
2013-08-14 11:37:00,66.4,51.2,29.82,WSW,256,2.0,3.0,58,0.00,,---,0.00,VWS V14.01,2013-08-14 15:37:00,
2013-08-14 11:42:00,66.8,52.0,29.82,WNW,290,0.0,0.0,59,0.00,,---,0.00,VWS V14.01,2013-08-14 15:42:00,
2013-08-14 11:47:00,66.8,49.6,29.82,WSW,244,2.0,5.0,54,0.00,,---,0.00,VWS V14.01,2013-08-14 15:47:00,
2013-08-14 11:54:00,67.4,51.2,29.82,NNW,337,1.0,3.0,56,0.00,,---,0.00,VWS V14.01,2013-08-14 15:54:00,
2013-08-14 11:59:00,67.9,51.6,29.82,West,265,0.0,0.0,56,0.00,,---,0.00,VWS V14.01,2013-08-14 15:59:00,
2013-08-14 12:04:00,68.3,50.5,29.82,WSW,248,0.0,3.0,53,0.00,,---,0.00,VWS V14.01,2013-08-14 16:04:00,
2013-08-14 12:10:00,68.9,50.6,29.82,NNW,331,0.0,4.0,52,0.00,,---,0.00,VWS V14.01,2013-08-14 16:10:00,
2013-08-14 12:15:00,69.6,50.7,29.82,NW,309,1.0,1.0,51,0.00,,---,0.00,VWS V14.01,2013-08-14 16:15:00,
2013-08-14 12:20:00,69.8,51.4,29.82,NW,325,1.0,4.0,52,0.00,,---,0.00,VWS V14.01,2013-08-14 16:20:00,
2013-08-14 12:27:00,69.9,51.0,29.82,West,269,1.0,1.0,51,0.00,,---,0.00,VWS V14.01,2013-08-14 16:27:00,
2013-08-14 12:33:00,69.8,49.8,29.82,SW,223,7.0,7.0,49,0.00,,---,0.00,VWS V14.01,2013-08-14 16:33:00,
2013-08-14 12:39:00,69.3,50.4,29.83,WSW,252,3.0,4.0,51,0.00,,---,0.00,VWS V14.01,2013-08-14 16:39:00,
2013-08-14 12:44:00,69.4,50.0,29.83,West,272,2.0,6.0,50,0.00,,---,0.00,VWS V14.01,2013-08-14 16:44:00,
2013-08-14 12:56:00,69.4,50.0,29.83,WSW,237,4.0,4.0,50,0.00,,---,0.00,VWS V14.01,2013-08-14 16:56:00,
2013-08-14 13:02:00,69.6,50.7,29.83,North,355,1.0,4.0,51,0.00,,---,0.00,VWS V14.01,2013-08-14 17:02:00,
2013-08-14 13:08:00,69.3,50.4,29.83,West,260,6.0,10.0,51,0.00,,---,0.00,VWS V14.01,2013-08-14 17:08:00,
2013-08-14 13:13:00,69.3,50.4,29.83,NNW,336,1.0,3.0,51,0.00,,---,0.00,VWS V14.01,2013-08-14 17:13:00,
2013-08-14 13:18:00,69.9,51.5,29.83,NNW,332,0.0,1.0,52,0.00,,---,0.00,VWS V14.01,2013-08-14 17:18:00,
2013-08-14 13:23:00,70.8,52.3,29.83,WNW,284,2.0,3.0,52,0.00,,---,0.00,VWS V14.01,2013-08-14 17:23:00,
2013-08-14 13:29:00,70.6,50.0,29.83,WSW,246,4.0,4.0,48,0.00,,---,0.00,VWS V14.01,2013-08-14 17:29:00,
2013-08-14 13:34:00,69.9,50.4,29.83,SW,223,2.0,5.0,50,0.00,,---,0.00,VWS V14.01,2013-08-14 17:34:00,
2013-08-14 13:39:00,69.8,50.9,29.83,WSW,252,3.0,5.0,51,0.00,,---,0.00,VWS V14.01,2013-08-14 17:39:00,
2013-08-14 13:44:00,69.1,50.2,29.83,WSW,246,2.0,4.0,51,0.00,,---,0.00,VWS V14.01,2013-08-14 17:44:00,
2013-08-14 13:50:00,69.6,51.7,29.83,SW,233,3.0,7.0,53,0.00,,---,0.00,VWS V14.01,2013-08-14 17:50:00,
2013-08-14 13:55:00,70.4,53.0,29.83,West,274,1.0,1.0,54,0.00,,---,0.00,VWS V14.01,2013-08-14 17:55:00,
2013-08-14 14:00:00,70.9,52.4,29.82,WSW,238,0.0,2.0,52,0.00,,---,0.00,VWS V14.01,2013-08-14 18:00:00,
2013-08-14 14:05:00,70.6,50.5,29.83,WSW,239,0.0,6.0,49,0.00,,---,0.00,VWS V14.01,2013-08-14 18:05:00,
2013-08-14 14:10:00,69.9,52.0,29.83,WNW,300,0.0,2.0,53,0.00,,---,0.00,VWS V14.01,2013-08-14 18:10:00,
2013-08-14 14:17:00,70.1,51.2,29.83,WSW,242,0.0,1.0,51,0.00,,---,0.00,VWS V14.01,2013-08-14 18:17:00,
2013-08-14 14:23:00,70.4,49.8,29.83,WNW,286,2.0,5.0,48,0.00,,---,0.00,VWS V14.01,2013-08-14 18:23:00,
2013-08-14 14:30:00,70.8,50.7,29.83,SW,225,0.0,4.0,49,0.00,,---,0.00,VWS V14.01,2013-08-14 18:30:00,
2013-08-14 14:36:00,70.8,51.3,29.83,SSW,203,2.0,2.0,50,0.00,,---,0.00,VWS V14.01,2013-08-14 18:36:00,
2013-08-14 14:42:00,71.1,51.5,29.83,West,263,0.0,4.0,50,0.00,,---,0.00,VWS V14.01,2013-08-14 18:42:00,
2013-08-14 14:50:00,70.9,51.3,29.83,WNW,292,0.0,3.0,50,0.00,,---,0.00,VWS V14.01,2013-08-14 18:50:00,
2013-08-14 14:55:00,71.1,50.4,29.83,SW,232,4.0,7.0,48,0.00,,---,0.00,VWS V14.01,2013-08-14 18:55:00,
2013-08-14 15:01:00,71.3,50.0,29.83,North,355,1.0,3.0,47,0.00,,---,0.00,VWS V14.01,2013-08-14 19:01:00,
2013-08-14 15:06:00,71.3,49.5,29.83,WSW,244,5.0,6.0,46,0.00,,---,0.00,VWS V14.01,2013-08-14 19:06:00,
2013-08-14 15:12:00,70.9,50.2,29.83,WSW,246,0.0,3.0,48,0.00,,---,0.00,VWS V14.01,2013-08-14 19:12:00,
2013-08-14 15:17:00,71.3,51.2,29.83,WSW,242,2.0,5.0,49,0.00,,---,0.00,VWS V14.01,2013-08-14 19:17:00,
2013-08-14 15:22:00,72.0,51.8,29.83,WSW,247,3.0,4.0,49,0.00,,---,0.00,VWS V14.01,2013-08-14 19:22:00,
2013-08-14 15:29:00,72.1,50.8,29.83,West,259,4.0,10.0,47,0.00,,---,0.00,VWS V14.01,2013-08-14 19:29:00,
2013-08-14 15:34:00,72.0,49.5,29.83,West,267,2.0,13.0,45,0.00,,---,0.00,VWS V14.01,2013-08-14 19:34:00,
2013-08-14 15:39:00,72.0,51.3,29.83,WSW,240,5.0,7.0,48,0.00,,---,0.00,VWS V14.01,2013-08-14 19:39:00,
2013-08-14 15:44:00,72.0,49.5,29.82,WSW,254,3.0,5.0,45,0.00,,---,0.00,VWS V14.01,2013-08-14 19:44:00,
2013-08-14 15:49:00,72.5,51.2,29.83,WSW,256,6.0,6.0,47,0.00,,---,0.00,VWS V14.01,2013-08-14 19:49:00,
2013-08-14 15:55:00,72.3,51.0,29.83,WSW,237,5.0,5.0,47,0.00,,---,0.00,VWS V14.01,2013-08-14 19:55:00,
2013-08-14 16:01:00,72.5,51.2,29.83,West,267,0.0,2.0,47,0.00,,---,0.00,VWS V14.01,2013-08-14 20:01:00,
2013-08-14 16:06:00,72.8,51.4,29.83,West,261,2.0,4.0,47,0.00,,---,0.00,VWS V14.01,2013-08-14 20:06:00,
2013-08-14 16:11:00,72.7,50.8,29.83,WNW,296,0.0,7.0,46,0.00,,---,0.00,VWS V14.01,2013-08-14 20:11:00,
2013-08-14 16:17:00,72.8,52.0,29.83,West,263,1.0,3.0,48,0.00,,---,0.00,VWS V14.01,2013-08-14 20:17:00,
2013-08-14 16:23:00,73.0,50.4,29.83,WSW,247,0.0,3.0,45,0.00,,---,0.00,VWS V14.01,2013-08-14 20:23:00,
2013-08-14 16:29:00,73.2,51.8,29.83,WNW,298,0.0,2.0,47,0.00,,---,0.00,VWS V14.01,2013-08-14 20:29:00,
2013-08-14 16:34:00,73.2,50.6,29.83,West,265,1.0,3.0,45,0.00,,---,0.00,VWS V14.01,2013-08-14 20:34:00,
2013-08-14 16:40:00,72.8,49.6,29.83,West,275,3.0,6.0,44,0.00,,---,0.00,VWS V14.01,2013-08-14 20:40:00,
2013-08-14 16:47:00,72.7,50.8,29.83,NNW,342,1.0,3.0,46,0.00,,---,0.00,VWS V14.01,2013-08-14 20:47:00,
2013-08-14 16:52:00,72.8,50.8,29.84,WSW,238,0.0,6.0,46,0.00,,---,0.00,VWS V14.01,2013-08-14 20:52:00,
2013-08-14 16:57:00,73.0,51.6,29.84,WNW,285,0.0,2.0,47,0.00,,---,0.00,VWS V14.01,2013-08-14 20:57:00,
2013-08-14 17:04:00,73.2,51.8,29.84,West,261,1.0,3.0,47,0.00,,---,0.00,VWS V14.01,2013-08-14 21:04:00,
2013-08-14 17:09:00,73.2,52.4,29.84,West,272,3.0,3.0,48,0.00,,---,0.00,VWS V14.01,2013-08-14 21:09:00,
2013-08-14 17:15:00,72.5,52.8,29.84,WNW,296,1.0,3.0,50,0.00,,---,0.00,VWS V14.01,2013-08-14 21:15:00,
2013-08-14 17:20:00,72.3,51.5,29.85,WNW,290,0.0,2.0,48,0.00,,---,0.00,VWS V14.01,2013-08-14 21:20:00,
2013-08-14 17:25:00,72.1,51.9,29.85,WNW,302,0.0,3.0,49,0.00,,---,0.00,VWS V14.01,2013-08-14 21:25:00,
2013-08-14 17:30:00,71.8,52.7,29.85,West,274,1.0,4.0,51,0.00,,---,0.00,VWS V14.01,2013-08-14 21:30:00,
2013-08-14 17:36:00,71.8,51.1,29.85,WNW,288,1.0,4.0,48,0.00,,---,0.00,VWS V14.01,2013-08-14 21:36:00,
2013-08-14 17:41:00,71.3,50.6,29.85,NNW,346,0.0,2.0,48,0.00,,---,0.00,VWS V14.01,2013-08-14 21:41:00,
2013-08-14 17:46:00,70.8,51.8,29.86,WSW,248,1.0,2.0,51,0.00,,---,0.00,VWS V14.01,2013-08-14 21:46:00,
2013-08-14 17:52:00,70.4,50.3,29.86,WSW,254,3.0,4.0,49,0.00,,---,0.00,VWS V14.01,2013-08-14 21:52:00,
2013-08-14 17:57:00,70.3,51.3,29.86,WSW,255,2.0,3.0,51,0.00,,---,0.00,VWS V14.01,2013-08-14 21:57:00,
2013-08-14 18:02:00,70.4,51.4,29.86,WSW,248,3.0,6.0,51,0.00,,---,0.00,VWS V14.01,2013-08-14 22:02:00,
2013-08-14 18:08:00,70.4,49.2,29.86,WSW,253,0.0,2.0,47,0.00,,---,0.00,VWS V14.01,2013-08-14 22:08:00,
2013-08-14 18:13:00,70.6,50.5,29.86,West,260,2.0,3.0,49,0.00,,---,0.00,VWS V14.01,2013-08-14 22:13:00,
2013-08-14 18:19:00,70.6,50.5,29.86,NW,304,0.0,0.0,49,0.00,,---,0.00,VWS V14.01,2013-08-14 22:19:00,
2013-08-14 18:24:00,70.6,51.1,29.87,West,271,0.0,1.0,50,0.00,,---,0.00,VWS V14.01,2013-08-14 22:24:00,
2013-08-14 18:29:00,70.8,51.3,29.87,WNW,287,2.0,2.0,50,0.00,,---,0.00,VWS V14.01,2013-08-14 22:29:00,
2013-08-14 18:34:00,70.8,52.3,29.87,North,350,0.0,2.0,52,0.00,,---,0.00,VWS V14.01,2013-08-14 22:34:00,
2013-08-14 18:40:00,70.6,51.1,29.87,West,266,0.0,1.0,50,0.00,,---,0.00,VWS V14.01,2013-08-14 22:40:00,
2013-08-14 18:45:00,70.3,50.8,29.88,WSW,243,0.0,4.0,50,0.00,,---,0.00,VWS V14.01,2013-08-14 22:45:00,
2013-08-14 18:50:00,69.9,51.0,29.88,WSW,243,0.0,0.0,51,0.00,,---,0.00,VWS V14.01,2013-08-14 22:50:00,
2013-08-14 18:55:00,69.9,52.0,29.88,WSW,243,0.0,0.0,53,0.00,,---,0.00,VWS V14.01,2013-08-14 22:55:00,
2013-08-14 19:03:00,69.6,51.2,29.88,WSW,243,0.0,1.0,52,0.00,,---,0.00,VWS V14.01,2013-08-14 23:03:00,
2013-08-14 19:09:00,69.1,51.3,29.89,WNW,283,0.0,1.0,53,0.00,,---,0.00,VWS V14.01,2013-08-14 23:09:00,
2013-08-14 19:14:00,68.8,51.0,29.89,SW,229,0.0,1.0,53,0.00,,---,0.00,VWS V14.01,2013-08-14 23:14:00,
2013-08-14 19:20:00,68.4,50.6,29.89,WSW,244,0.0,1.0,53,0.00,,---,0.00,VWS V14.01,2013-08-14 23:20:00,
2013-08-14 19:26:00,68.3,51.0,29.89,WSW,244,3.0,3.0,54,0.00,,---,0.00,VWS V14.01,2013-08-14 23:26:00,
2013-08-14 19:31:00,67.9,49.7,29.90,NW,314,0.0,0.0,52,0.00,,---,0.00,VWS V14.01,2013-08-14 23:31:00,
2013-08-14 19:36:00,67.8,49.5,29.90,SW,235,0.0,3.0,52,0.00,,---,0.00,VWS V14.01,2013-08-14 23:36:00,
2013-08-14 19:41:00,67.6,50.4,29.91,SW,235,0.0,0.0,54,0.00,,---,0.00,VWS V14.01,2013-08-14 23:41:00,
2013-08-14 19:46:00,67.3,50.6,29.91,SW,235,0.0,0.0,55,0.00,,---,0.00,VWS V14.01,2013-08-14 23:46:00,
2013-08-14 19:52:00,66.9,50.2,29.91,SW,235,0.0,1.0,55,0.00,,---,0.00,VWS V14.01,2013-08-14 23:52:00,
2013-08-14 19:57:00,66.8,50.6,29.91,SW,235,0.0,0.0,56,0.00,,---,0.00,VWS V14.01,2013-08-14 23:57:00,
2013-08-14 20:03:00,66.4,50.2,29.92,SW,235,0.0,0.0,56,0.00,,---,0.00,VWS V14.01,2013-08-15 00:03:00,
2013-08-14 20:08:00,66.1,50.9,29.92,SW,235,0.0,0.0,58,0.00,,---,0.00,VWS V14.01,2013-08-15 00:08:00,
2013-08-14 20:13:00,65.8,51.1,29.92,West,281,0.0,0.0,59,0.00,,---,0.00,VWS V14.01,2013-08-15 00:13:00,
2013-08-14 20:18:00,65.5,50.8,29.93,West,281,0.0,0.0,59,0.00,,---,0.00,VWS V14.01,2013-08-15 00:18:00,
2013-08-14 20:24:00,65.2,50.5,29.93,West,281,0.0,0.0,59,0.00,,---,0.00,VWS V14.01,2013-08-15 00:24:00,
2013-08-14 20:30:00,64.8,50.2,29.93,West,281,0.0,0.0,59,0.00,,---,0.00,VWS V14.01,2013-08-15 00:30:00,
2013-08-14 20:35:00,64.7,51.0,29.94,West,281,0.0,0.0,61,0.00,,---,0.00,VWS V14.01,2013-08-15 00:35:00,
2013-08-14 20:40:00,64.3,50.6,29.94,West,281,0.0,0.0,61,0.00,,---,0.00,VWS V14.01,2013-08-15 00:40:00,
2013-08-14 20:45:00,64.2,50.5,29.94,West,281,0.0,0.0,61,0.00,,---,0.00,VWS V14.01,2013-08-15 00:45:00,
2013-08-14 20:51:00,64.0,50.7,29.95,West,281,0.0,0.0,62,0.00,,---,0.00,VWS V14.01,2013-08-15 00:51:00,
2013-08-14 20:56:00,63.7,50.5,29.95,West,281,0.0,0.0,62,0.00,,---,0.00,VWS V14.01,2013-08-15 00:56:00,
2013-08-14 21:01:00,63.4,50.2,29.96,West,281,0.0,0.0,62,0.00,,---,0.00,VWS V14.01,2013-08-15 01:01:00,
2013-08-14 21:07:00,63.1,50.3,29.96,West,281,0.0,0.0,63,0.00,,---,0.00,VWS V14.01,2013-08-15 01:07:00,
2013-08-14 21:12:00,62.7,50.4,29.97,West,281,0.0,0.0,64,0.00,,---,0.00,VWS V14.01,2013-08-15 01:12:00,
2013-08-14 21:17:00,62.6,50.7,29.97,West,281,0.0,0.0,65,0.00,,---,0.00,VWS V14.01,2013-08-15 01:17:00,
2013-08-14 21:23:00,62.4,50.9,29.97,West,281,0.0,0.0,66,0.00,,---,0.00,VWS V14.01,2013-08-15 01:23:00,
2013-08-14 21:28:00,62.3,50.8,29.97,West,281,0.0,0.0,66,0.00,,---,0.00,VWS V14.01,2013-08-15 01:28:00,
2013-08-14 21:33:00,62.1,51.0,29.98,West,281,0.0,0.0,67,0.00,,---,0.00,VWS V14.01,2013-08-15 01:33:00,
2013-08-14 21:38:00,62.0,50.5,29.98,West,281,0.0,0.0,66,0.00,,---,0.00,VWS V14.01,2013-08-15 01:38:00,
2013-08-14 21:43:00,61.8,50.7,29.98,West,281,0.0,0.0,67,0.00,,---,0.00,VWS V14.01,2013-08-15 01:43:00,
2013-08-14 21:48:00,61.6,51.0,29.98,West,281,0.0,0.0,68,0.00,,---,0.00,VWS V14.01,2013-08-15 01:48:00,
2013-08-14 21:53:00,61.3,51.1,29.98,West,281,0.0,0.0,69,0.00,,---,0.00,VWS V14.01,2013-08-15 01:53:00,
2013-08-14 21:58:00,61.0,51.2,29.98,West,281,0.0,0.0,70,0.00,,---,0.00,VWS V14.01,2013-08-15 01:58:00,
2013-08-14 22:04:00,60.7,51.2,29.98,West,281,0.0,0.0,71,0.00,,---,0.00,VWS V14.01,2013-08-15 02:04:00,
2013-08-14 22:09:00,60.4,51.0,29.98,West,281,0.0,0.0,71,0.00,,---,0.00,VWS V14.01,2013-08-15 02:09:00,
2013-08-14 22:15:00,60.1,50.7,29.99,West,281,0.0,0.0,71,0.00,,---,0.00,VWS V14.01,2013-08-15 02:15:00,
2013-08-14 22:20:00,59.9,50.5,29.99,West,281,0.0,0.0,71,0.00,,---,0.00,VWS V14.01,2013-08-15 02:20:00,
2013-08-14 22:25:00,59.8,50.8,30.00,West,281,0.0,0.0,72,0.00,,---,0.00,VWS V14.01,2013-08-15 02:25:00,
2013-08-14 22:30:00,59.5,51.2,30.00,West,281,0.0,0.0,74,0.00,,---,0.00,VWS V14.01,2013-08-15 02:30:00,
2013-08-14 22:35:00,59.2,51.3,30.00,West,281,0.0,0.0,75,0.00,,---,0.00,VWS V14.01,2013-08-15 02:35:00,
2013-08-14 22:40:00,58.9,51.4,30.00,West,281,0.0,0.0,76,0.00,,---,0.00,VWS V14.01,2013-08-15 02:40:00,
2013-08-14 22:45:00,58.7,51.2,30.00,West,281,0.0,0.0,76,0.00,,---,0.00,VWS V14.01,2013-08-15 02:45:00,
2013-08-14 22:50:00,58.6,51.4,30.00,West,281,0.0,0.0,77,0.00,,---,0.00,VWS V14.01,2013-08-15 02:50:00,
2013-08-14 22:56:00,58.3,51.1,30.00,West,281,0.0,0.0,77,0.00,,---,0.00,VWS V14.01,2013-08-15 02:56:00,
2013-08-14 23:01:00,58.1,51.3,30.01,West,281,0.0,0.0,78,0.00,,---,0.00,VWS V14.01,2013-08-15 03:01:00,
2013-08-14 23:06:00,58.0,51.2,30.01,West,281,0.0,0.0,78,0.00,,---,0.00,VWS V14.01,2013-08-15 03:06:00,
2013-08-14 23:12:00,57.8,51.3,30.01,West,281,0.0,0.0,79,0.00,,---,0.00,VWS V14.01,2013-08-15 03:12:00,
2013-08-14 23:18:00,57.6,51.1,30.01,West,281,0.0,0.0,79,0.00,,---,0.00,VWS V14.01,2013-08-15 03:18:00,
2013-08-14 23:23:00,57.5,51.0,30.01,West,281,0.0,0.0,79,0.00,,---,0.00,VWS V14.01,2013-08-15 03:23:00,
2013-08-14 23:28:00,57.3,50.8,30.01,West,281,0.0,0.0,79,0.00,,---,0.00,VWS V14.01,2013-08-15 03:28:00,
2013-08-14 23:34:00,57.3,51.2,30.01,West,281,0.0,0.0,80,0.00,,---,0.00,VWS V14.01,2013-08-15 03:34:00,
2013-08-14 23:39:00,57.2,50.8,30.02,West,281,0.0,0.0,79,0.00,,---,0.00,VWS V14.01,2013-08-15 03:39:00,
2013-08-14 23:44:00,57.2,51.1,30.02,West,281,0.0,0.0,80,0.00,,---,0.00,VWS V14.01,2013-08-15 03:44:00,
2013-08-14 23:49:00,56.9,51.1,30.02,West,281,0.0,0.0,81,0.00,,---,0.00,VWS V14.01,2013-08-15 03:49:00,
2013-08-14 23:54:00,56.7,50.9,30.02,West,281,0.0,0.0,81,0.00,,---,0.00,VWS V14.01,2013-08-15 03:54:00,